Time;durP1;ratioP1;P1;durP2;ratioP2;P2;SDS_P1;SDS_P2;PMS_P1;PMS_P2;Temp;Humidity;BMP_temperature;BMP_pressure;BME280_temperature;BME280_humidity;BME280_pressure;Samples;Min_cycle;Max_cycle;Signal;HPM_P1;HPM_P2
2022/04/06 00:04:48;;;;;;;19.67;8.27;;;;;;;7.69;87.90;100359.00;10479815;28;20029;-77
2022/04/06 00:09:48;;;;;;;17.10;9.43;;;;;;;7.73;86.92;100345.31;10498255;28;20466;-78
2022/04/06 00:14:49;;;;;;;16.60;6.97;;;;;;;7.69;87.39;100347.66;10481125;28;20487;-78
2022/04/06 00:19:49;;;;;;;18.20;9.50;;;;;;;7.63;87.79;100349.16;10496097;28;20068;-78
2022/04/06 00:24:51;;;;;;;24.13;9.48;;;;;;;7.68;87.09;100345.88;10478971;28;20052;-78
2022/04/06 00:29:52;;;;;;;19.33;9.50;;;;;;;7.71;85.96;100338.22;10479771;28;20025;-78
2022/04/06 00:40:12;;;;;;;19.98;9.48;;;;;;;7.65;86.09;100336.22;10467034;28;20539;-78
2022/04/06 00:45:13;;;;;;;16.52;6.70;;;;;;;7.66;86.39;100321.47;10480885;28;20119;-78
2022/04/06 00:50:13;;;;;;;20.55;9.68;;;;;;;7.57;86.11;100324.50;10495463;28;20036;-78
2022/04/06 00:55:14;;;;;;;41.17;11.07;;;;;;;7.58;86.54;100321.97;10497984;28;20044;-78
2022/04/06 01:00:15;;;;;;;18.23;9.32;;;;;;;7.58;86.06;100311.56;10461295;28;20024;-78
2022/04/06 01:05:16;;;;;;;28.23;8.07;;;;;;;7.60;85.69;100307.31;10515396;28;20078;-78
2022/04/06 01:10:16;;;;;;;21.70;8.07;;;;;;;7.57;85.97;100303.69;10477644;28;20060;-78
2022/04/06 01:15:17;;;;;;;15.13;7.68;;;;;;;7.47;86.00;100315.31;10460713;28;20033;-78
2022/04/06 01:20:17;;;;;;;19.23;7.20;;;;;;;7.53;85.79;100307.81;10494855;28;20078;-78
2022/04/06 01:25:27;;;;;;;21.10;7.65;;;;;;;7.47;85.44;100304.91;10470696;28;20064;-78
2022/04/06 01:30:27;;;;;;;16.10;7.75;;;;;;;7.52;85.25;100306.03;10479093;28;20086;-78
2022/04/06 01:35:28;;;;;;;20.60;8.85;;;;;;;7.51;84.84;100306.84;10495503;28;20109;-78
2022/04/06 01:40:28;;;;;;;14.02;7.40;;;;;;;7.48;85.39;100309.28;10493452;28;20474;-78
2022/04/06 01:45:35;;;;;;;9.25;6.32;;;;;;;7.46;85.10;100303.13;10459663;28;20032;-78
2022/04/06 01:55:59;;;;;;;14.15;7.30;;;;;;;7.53;84.76;100294.81;10457650;28;20044;-78
2022/04/06 02:01:00;;;;;;;18.70;8.13;;;;;;;7.48;84.35;100298.88;10494746;28;20032;-78
2022/04/06 02:06:00;;;;;;;13.05;6.95;;;;;;;7.51;84.28;100282.53;10477083;28;20032;-78
2022/04/06 02:11:01;;;;;;;18.75;6.65;;;;;;;7.43;84.88;100288.25;10493739;28;20495;-78
2022/04/06 02:16:01;;;;;;;17.30;7.35;;;;;;;7.41;84.77;100279.47;10476028;28;20075;-78
2022/04/06 02:21:02;;;;;;;18.90;7.57;;;;;;;7.32;84.83;100281.59;10474968;28;20086;-78
2022/04/06 02:26:02;;;;;;;18.50;6.38;;;;;;;7.25;84.89;100280.38;10492790;28;20553;-78
2022/04/06 02:31:03;;;;;;;15.20;5.68;;;;;;;7.28;84.68;100280.53;10493628;28;20068;-78
2022/04/06 02:36:04;;;;;;;14.80;6.28;;;;;;;7.31;84.75;100278.09;10492844;28;20029;-78
2022/04/06 02:41:07;;;;;;;13.45;7.80;;;;;;;7.31;84.09;100269.41;10492356;28;20036;-78
2022/04/06 02:46:08;;;;;;;20.38;8.20;;;;;;;7.25;83.93;100258.66;10458798;28;20399;-78
2022/04/06 02:51:09;;;;;;;15.68;6.88;;;;;;;7.18;84.13;100250.53;10500351;28;20083;-78
2022/04/06 02:56:09;;;;;;;15.13;8.30;;;;;;;7.13;84.62;100253.72;10500604;28;20029;-78
2022/04/06 03:01:09;;;;;;;13.60;5.88;;;;;;;7.09;84.11;100239.66;10500219;28;20037;-78
2022/04/06 03:06:10;;;;;;;22.23;7.28;;;;;;;6.96;85.09;100243.31;10501539;28;20119;-78
2022/04/06 03:11:11;;;;;;;18.15;5.78;;;;;;;6.87;83.87;100241.16;10500091;28;20123;-78
2022/04/06 03:16:11;;;;;;;14.43;6.53;;;;;;;6.82;84.01;100239.09;10465931;28;20060;-78
2022/04/06 03:21:12;;;;;;;23.85;5.93;;;;;;;6.81;84.46;100232.13;10500542;28;20060;-78
2022/04/06 03:26:12;;;;;;;10.18;4.10;;;;;;;6.76;84.27;100229.28;10499111;28;20028;-78
2022/04/06 03:31:13;;;;;;;13.00;5.78;;;;;;;6.75;84.16;100217.97;10499622;28;20984;-78
2022/04/06 03:36:13;;;;;;;25.73;6.47;;;;;;;6.85;83.96;100215.84;10498834;28;20040;-78
2022/04/06 03:41:14;;;;;;;13.60;6.22;;;;;;;6.79;84.21;100206.03;10499173;28;20060;-78
2022/04/06 03:46:14;;;;;;;15.55;5.55;;;;;;;6.89;82.33;100210.00;10499010;28;20387;-78
2022/04/06 03:51:15;;;;;;;10.25;4.07;;;;;;;6.95;82.36;100205.13;10480806;28;20063;-78
2022/04/06 03:56:15;;;;;;;11.05;4.20;;;;;;;7.01;82.24;100204.56;10499627;28;20068;-78
2022/04/06 04:01:16;;;;;;;14.93;5.28;;;;;;;7.05;82.03;100201.28;10478938;28;20028;-78
2022/04/06 04:06:17;;;;;;;20.67;5.75;;;;;;;7.19;80.54;100209.78;10498062;28;20041;-78
2022/04/06 04:11:17;;;;;;;8.35;4.15;;;;;;;7.26;80.53;100206.66;10497617;28;20091;-79
2022/04/06 04:16:17;;;;;;;13.07;6.75;;;;;;;7.20;80.66;100202.06;10499639;28;20032;-78
2022/04/06 04:21:33;;;;;;;14.35;6.90;;;;;;;7.25;79.70;100202.28;10497695;28;20039;-78
2022/04/06 04:26:34;;;;;;;14.82;5.20;;;;;;;7.29;80.08;100199.03;10473217;28;20055;-78
2022/04/06 04:31:35;;;;;;;14.40;4.23;;;;;;;7.26;80.40;100184.97;10479603;28;20024;-79
2022/04/06 04:36:35;;;;;;;23.40;5.72;;;;;;;7.26;80.34;100198.88;10464219;28;20025;-78
2022/04/06 04:41:36;;;;;;;10.90;5.63;;;;;;;7.25;81.27;100198.81;10495388;28;20500;-80
2022/04/06 04:46:36;;;;;;;17.60;8.98;;;;;;;7.24;81.07;100190.09;10505918;28;20062;-78
2022/04/06 04:51:37;;;;;;;15.07;6.38;;;;;;;7.27;81.30;100185.03;10514646;28;20127;-78
2022/04/06 04:56:40;;;;;;;12.00;6.35;;;;;;;7.28;81.34;100178.13;10496575;28;20129;-78
2022/04/06 05:01:44;;;;;;;11.63;6.72;;;;;;;7.27;81.32;100178.94;10495260;28;20039;-78
2022/04/06 05:06:44;;;;;;;19.20;7.45;;;;;;;7.24;81.40;100174.47;10478809;28;20024;-80
2022/04/06 05:11:45;;;;;;;12.40;6.22;;;;;;;7.24;82.04;100177.06;10510808;28;20113;-78
2022/04/06 05:16:45;;;;;;;15.70;6.30;;;;;;;7.28;81.42;100171.19;10497290;28;20071;-78
2022/04/06 05:21:46;;;;;;;11.93;6.75;;;;;;;7.33;81.38;100166.25;10496158;28;20522;-80
2022/04/06 05:26:46;;;;;;;17.88;5.57;;;;;;;7.40;80.61;100170.03;10494879;28;20123;-81
2022/04/06 05:31:47;;;;;;;13.65;5.43;;;;;;;7.33;81.75;100169.72;10495578;28;20526;-81
2022/04/06 05:36:47;;;;;;;10.15;5.22;;;;;;;7.33;80.54;100166.25;10493003;28;20063;-80
2022/04/06 05:41:49;;;;;;;14.10;6.68;;;;;;;7.31;80.66;100175.69;10478242;28;20085;-80
2022/04/06 05:46:49;;;;;;;16.53;5.07;;;;;;;7.29;80.76;100180.78;10475146;28;20025;-80
2022/04/06 05:51:50;;;;;;;18.83;6.28;;;;;;;7.36;80.18;100153.38;10492348;28;20397;-80
2022/04/06 05:56:50;;;;;;;14.38;5.97;;;;;;;7.39;79.68;100176.06;10459488;28;20490;-80
2022/04/06 06:01:51;;;;;;;13.23;5.30;;;;;;;7.39;80.75;100178.66;10492927;28;20076;-80
2022/04/06 06:06:51;;;;;;;13.32;4.75;;;;;;;7.35;81.34;100180.22;10491877;28;20114;-81
2022/04/06 06:11:52;;;;;;;15.20;5.50;;;;;;;7.19;82.85;100196.78;10475090;28;20024;-81
2022/04/06 06:16:52;;;;;;;11.20;6.13;;;;;;;6.88;86.26;100193.50;10459263;28;20079;-80
2022/04/06 06:21:53;;;;;;;13.20;6.70;;;;;;;6.93;85.89;100187.66;10492478;28;20455;-81
2022/04/06 06:26:54;;;;;;;10.63;4.90;;;;;;;7.08;85.85;100180.63;10492947;28;20059;-81
2022/04/06 06:31:55;;;;;;;13.70;7.47;;;;;;;7.18;84.97;100185.47;10457374;28;20127;-80
2022/04/06 06:36:55;;;;;;;14.80;6.68;;;;;;;7.19;84.93;100173.34;10493752;28;20112;-80
2022/04/06 06:41:56;;;;;;;11.32;5.32;;;;;;;7.23;84.18;100174.41;10492087;28;20706;-82
2022/04/06 06:46:56;;;;;;;14.38;4.50;;;;;;;7.27;83.48;100159.00;10493963;28;20055;-78
2022/04/06 06:51:57;;;;;;;10.27;5.10;;;;;;;7.24;83.60;100147.56;10474810;28;20103;-82
2022/04/06 06:56:57;;;;;;;12.20;5.05;;;;;;;7.29;83.21;100161.69;10490696;28;20392;-79
2022/04/06 07:01:58;;;;;;;9.85;4.68;;;;;;;7.44;81.87;100154.66;10493726;28;20416;-78
2022/04/06 07:06:58;;;;;;;9.65;4.78;;;;;;;7.57;82.22;100143.09;10492060;28;20032;-78
2022/04/06 07:11:59;;;;;;;11.70;5.28;;;;;;;7.62;81.06;100144.22;10455982;28;20486;-78
2022/04/06 07:17:00;;;;;;;9.00;4.43;;;;;;;7.58;80.55;100144.88;10469086;28;20036;-78
2022/04/06 07:22:00;;;;;;;9.48;4.57;;;;;;;7.58;80.18;100149.22;10458137;28;20024;-78
2022/04/06 07:27:01;;;;;;;10.70;4.85;;;;;;;7.61;80.26;100137.22;10476763;28;20025;-79
2022/04/06 07:32:01;;;;;;;7.10;4.45;;;;;;;7.68;80.35;100134.91;10458585;28;20051;-79
2022/04/06 07:37:02;;;;;;;5.88;3.50;;;;;;;7.84;79.35;100140.00;10475269;28;20589;-79
2022/04/06 07:42:04;;;;;;;8.32;3.70;;;;;;;7.88;77.93;100126.31;10507632;28;20476;-79
2022/04/06 07:47:04;;;;;;;17.63;4.93;;;;;;;8.00;77.17;100112.06;10499951;28;20027;-79
2022/04/06 07:52:05;;;;;;;14.93;5.10;;;;;;;8.18;76.44;100092.06;10466199;28;20043;-79
2022/04/06 07:57:05;;;;;;;6.95;3.83;;;;;;;8.42;76.07;100099.19;10498508;28;20027;-78
2022/04/06 08:02:06;;;;;;;7.97;4.03;;;;;;;8.60;74.99;100095.63;10499075;28;20040;-79
2022/04/06 08:07:06;;;;;;;10.50;2.95;;;;;;;8.65;72.46;100096.72;10498169;28;20056;-79
2022/04/06 08:12:07;;;;;;;8.23;2.67;;;;;;;8.73;72.08;100077.06;10498743;28;20064;-79
2022/04/06 08:17:08;;;;;;;5.63;3.00;;;;;;;8.96;71.09;100095.41;10498540;28;20029;-78
2022/04/06 08:22:08;;;;;;;7.53;3.05;;;;;;;8.87;72.08;100090.72;10480300;28;20082;-78
2022/04/06 08:27:09;;;;;;;9.15;3.92;;;;;;;8.86;70.74;100093.25;10480529;28;20021;-78
2022/04/06 08:32:09;;;;;;;5.45;3.15;;;;;;;8.68;70.84;100096.84;10479249;28;20064;-80
2022/04/06 08:37:10;;;;;;;8.63;2.22;;;;;;;8.65;71.78;100088.88;10498046;28;20487;-79
2022/04/06 08:42:11;;;;;;;5.32;3.53;;;;;;;8.65;71.66;100096.72;10462087;28;20502;-79
2022/04/06 08:47:12;;;;;;;116.22;65.55;;;;;;;8.65;70.61;100084.56;10507652;28;20064;-80
2022/04/06 08:52:12;;;;;;;7.55;3.85;;;;;;;8.66;71.99;100091.59;10480717;28;20040;-80
2022/04/06 08:57:13;;;;;;;6.70;3.17;;;;;;;8.68;71.38;100096.84;10487583;28;20079;-79
2022/04/06 09:02:19;;;;;;;5.30;2.15;;;;;;;8.59;72.10;100094.75;10444226;28;20128;-80
2022/04/06 09:07:21;;;;;;;9.30;2.15;;;;;;;8.50;71.54;100097.84;10494765;28;20029;-80
2022/04/06 09:12:23;;;;;;;10.90;2.15;;;;;;;8.45;72.96;100096.69;10488564;28;20033;-80
2022/04/06 09:17:24;;;;;;;7.90;2.75;;;;;;;8.49;72.15;100095.16;10437517;28;20476;-80
2022/04/06 09:22:25;;;;;;;5.40;2.03;;;;;;;8.72;71.02;100090.06;10437624;28;20144;-79
2022/04/06 09:27:32;;;;;;;6.47;2.90;;;;;;;8.62;71.77;100089.66;10517919;28;20047;-80
2022/04/06 09:32:32;;;;;;;4.45;2.20;;;;;;;8.75;72.20;100088.47;10478159;28;20483;-80
2022/04/06 09:37:32;;;;;;;9.15;2.35;;;;;;;8.95;72.41;100085.78;10475517;28;20060;-80
2022/04/06 09:42:33;;;;;;;4.00;1.70;;;;;;;9.25;70.93;100083.56;10479282;28;20114;-82
2022/04/06 09:47:40;;;;;;;6.68;2.90;;;;;;;9.85;69.61;100078.88;10460220;28;20377;-79
2022/04/06 09:52:42;;;;;;;8.07;3.50;;;;;;;10.25;68.10;100072.50;10452697;28;20098;-83
2022/04/06 09:57:44;;;;;;;6.00;2.50;;;;;;;9.77;68.83;100075.09;10475887;28;20043;-79
2022/04/06 10:02:49;;;;;;;7.00;2.40;;;;;;;9.53;68.85;100057.63;10517185;28;20293;-79
2022/04/06 10:07:51;;;;;;;7.63;2.75;;;;;;;9.42;68.99;100065.06;10493924;28;20025;-79
2022/04/06 10:12:53;;;;;;;5.82;2.42;;;;;;;9.23;69.93;100059.13;10494004;28;20131;-78
2022/04/06 10:17:53;;;;;;;7.38;2.70;;;;;;;9.13;70.37;100062.19;10468656;28;20051;-78
2022/04/06 10:23:13;;;;;;;4.25;2.42;;;;;;;9.45;70.60;100052.13;10484372;28;20526;-80
2022/04/06 10:28:14;;;;;;;7.07;3.03;;;;;;;9.53;69.54;100042.88;10478881;28;20063;-80
2022/04/06 10:33:21;;;;;;;6.60;2.17;;;;;;;9.58;70.65;100048.25;10458269;28;20024;-80
2022/04/06 10:38:22;;;;;;;9.10;3.42;;;;;;;9.60;68.53;100033.53;10475920;28;20102;-80
2022/04/06 10:43:40;;;;;;;6.43;1.98;;;;;;;9.55;69.55;100040.31;10476154;28;20036;-80
2022/04/06 10:48:59;;;;;;;7.75;3.00;;;;;;;9.63;68.75;100040.59;10493795;28;20045;-80
2022/04/06 10:54:20;;;;;;;5.32;2.08;;;;;;;9.41;68.91;100039.78;10474828;28;20055;-80
2022/04/06 10:59:23;;;;;;;13.48;4.18;;;;;;;9.36;69.59;100002.16;10494386;28;20029;-81
2022/04/06 11:04:24;;;;;;;5.35;3.38;;;;;;;9.29;69.15;100023.63;10475493;28;20031;-80
2022/04/06 11:15:10;;;;;;;15.35;2.80;;;;;;;9.70;67.33;100013.88;10485947;28;20127;-80
2022/04/06 11:20:12;;;;;;;3.25;1.80;;;;;;;9.82;67.57;100019.56;10502000;28;20085;-80
2022/04/06 11:25:14;;;;;;;7.80;3.72;;;;;;;9.68;68.86;100020.78;10501135;28;20043;-80
2022/04/06 11:30:21;;;;;;;7.50;3.03;;;;;;;9.45;68.90;100017.25;10467705;28;20029;-80
2022/04/06 11:35:27;;;;;;;11.57;2.88;;;;;;;9.41;69.98;100008.44;10500224;28;20131;-80
2022/04/06 11:40:28;;;;;;;4.82;2.85;;;;;;;9.32;70.44;99988.06;10483545;28;20035;-80
2022/04/06 11:45:30;;;;;;;8.20;2.58;;;;;;;9.65;69.27;99977.13;10482203;28;20032;-80
2022/04/06 11:50:35;;;;;;;5.75;2.53;;;;;;;9.97;67.72;99980.00;10481813;28;20044;-81
2022/04/06 11:55:40;;;;;;;6.18;2.67;;;;;;;9.94;68.83;99989.47;10467089;28;20040;-80
2022/04/06 12:00:40;;;;;;;8.18;3.03;;;;;;;9.79;70.69;99974.13;10481515;28;20383;-80
2022/04/06 12:05:47;;;;;;;6.25;3.00;;;;;;;9.74;70.86;99971.34;10500718;28;20031;-80
2022/04/06 12:10:56;;;;;;;4.15;2.63;;;;;;;9.68;70.18;99976.34;10499278;28;20028;-80
2022/04/06 12:15:57;;;;;;;7.15;3.05;;;;;;;9.64;70.20;99958.78;10483621;28;20557;-81
2022/04/06 12:20:57;;;;;;;6.03;3.20;;;;;;;9.57;70.23;99962.88;10464324;28;20111;-80
2022/04/06 12:25:59;;;;;;;6.07;2.53;;;;;;;9.54;70.68;99957.53;10481367;28;20121;-81
2022/04/06 12:31:07;;;;;;;10.20;3.40;;;;;;;9.77;69.67;99954.88;10464027;28;20033;-80
2022/04/06 12:36:10;;;;;;;5.25;3.45;;;;;;;10.26;70.46;99937.44;10481033;28;20115;-80
2022/04/06 12:41:12;;;;;;;3.35;2.70;;;;;;;10.26;69.46;99930.47;10497879;28;20037;-80
2022/04/06 12:46:13;;;;;;;6.37;2.93;;;;;;;10.31;70.47;99925.41;10481171;28;20035;-80
2022/04/06 12:51:17;;;;;;;13.20;3.10;;;;;;;10.15;69.59;99931.81;10497588;28;20047;-81
2022/04/06 12:56:24;;;;;;;6.07;3.17;;;;;;;10.24;69.48;99910.34;10499082;28;20052;-80
2022/04/06 13:01:25;;;;;;;7.40;3.70;;;;;;;10.32;68.21;99911.47;10479384;28;20036;-81
2022/04/06 13:06:25;;;;;;;6.53;2.72;;;;;;;10.34;67.88;99896.72;10479752;28;20060;-80
2022/04/06 13:11:26;;;;;;;7.65;2.42;;;;;;;10.28;67.27;99888.69;10497108;28;20064;-80
2022/04/06 13:16:28;;;;;;;4.68;2.28;;;;;;;10.39;67.70;99886.41;10478981;28;20032;-80
2022/04/06 13:21:33;;;;;;;;;;;;;;;10.54;67.10;99865.13;10497519;28;20028;-80
2022/04/06 13:26:34;;;;;;;5.40;2.72;;;;;;;10.43;66.12;99870.91;10496285;28;19926;-80
2022/04/06 13:31:39;;;;;;;4.63;2.58;;;;;;;10.34;66.19;99859.22;10477905;28;20487;-81
2022/04/06 13:36:40;;;;;;;24.90;4.63;;;;;;;10.40;65.26;99855.13;10480266;28;20468;-80
2022/04/06 13:41:41;;;;;;;5.05;2.58;;;;;;;10.44;65.46;99848.22;10494970;28;20365;-80
2022/04/06 13:46:41;;;;;;;4.57;2.78;;;;;;;10.53;64.83;99834.56;10462388;28;20361;-79
2022/04/06 13:51:42;;;;;;;5.10;2.80;;;;;;;10.59;64.21;99834.75;10494469;28;20079;-79
2022/04/06 13:56:43;;;;;;;5.80;2.72;;;;;;;10.48;64.62;99831.81;10488167;28;20385;-81
2022/04/06 14:01:47;;;;;;;4.63;2.60;;;;;;;10.63;66.56;99809.56;10460838;28;20521;-80
2022/04/06 14:06:47;;;;;;;6.97;3.08;;;;;;;10.70;64.01;99785.34;10476713;28;20035;-80
2022/04/06 14:11:49;;;;;;;18.60;4.10;;;;;;;10.83;64.36;99792.72;10494202;28;20059;-79
2022/04/06 14:16:50;;;;;;;8.45;2.65;;;;;;;10.76;64.37;99789.91;10458756;28;20017;-79
2022/04/06 14:21:50;;;;;;;8.90;2.47;;;;;;;10.45;65.39;99795.06;10449470;28;20075;-79
2022/04/06 14:26:51;;;;;;;6.30;2.88;;;;;;;10.32;65.96;99796.41;10486456;28;20064;-82
2022/04/06 14:31:53;;;;;;;3.28;1.98;;;;;;;10.09;66.41;99782.59;10475888;28;20028;-79
2022/04/06 14:36:53;;;;;;;7.20;3.33;;;;;;;9.94;66.79;99785.59;10472647;28;20040;-81
2022/04/06 14:42:05;;;;;;;6.60;2.38;;;;;;;10.01;66.47;99779.75;10485619;28;20040;-79
2022/04/06 14:47:09;;;;;;;4.43;2.08;;;;;;;10.22;65.90;99778.66;10496606;28;20060;-80
2022/04/06 14:52:24;;;;;;;7.40;1.90;;;;;;;10.28;66.67;99763.16;10473314;28;20033;-77
2022/04/06 14:57:25;;;;;;;9.05;3.65;;;;;;;10.26;65.87;99746.53;10494834;28;20266;-77
2022/04/06 15:02:35;;;;;;;4.13;1.90;;;;;;;10.44;66.25;99754.06;10473452;28;20079;-78
2022/04/06 15:07:37;;;;;;;4.32;2.70;;;;;;;10.56;65.68;99740.47;10493156;28;20052;-78
2022/04/06 15:12:49;;;;;;;5.43;2.22;;;;;;;10.50;64.63;99724.59;10482216;28;20441;-78
2022/04/06 15:18:01;;;;;;;5.55;2.13;;;;;;;10.36;65.70;99724.13;10459478;28;20025;-77
2022/04/06 15:23:04;;;;;;;4.53;2.10;;;;;;;10.25;66.33;99727.31;10496932;28;20078;-78
2022/04/06 15:28:07;;;;;;;10.43;3.05;;;;;;;10.14;66.18;99721.78;10498876;28;20025;-78
2022/04/06 15:33:14;;;;;;;5.57;1.77;;;;;;;10.03;67.41;99712.72;10478643;28;20036;-79
2022/04/06 15:38:22;;;;;;;4.05;2.33;;;;;;;10.06;67.22;99704.06;10461226;28;20028;-79
2022/04/06 15:43:28;;;;;;;4.18;3.05;;;;;;;10.07;67.80;99698.00;10493489;28;20045;-80
2022/04/06 15:48:29;;;;;;;5.13;2.60;;;;;;;10.05;67.30;99697.97;10461646;28;20052;-78
2022/04/06 15:53:34;;;;;;;3.92;1.88;;;;;;;10.12;67.94;99696.41;10495316;28;20181;-78
2022/04/06 15:58:39;;;;;;;5.95;2.92;;;;;;;10.04;67.50;99679.59;10477722;28;20043;-78
2022/04/06 16:03:45;;;;;;;4.53;1.75;;;;;;;9.97;67.97;99678.53;10500741;28;20036;-78
2022/04/06 16:08:53;;;;;;;2.85;1.98;;;;;;;9.79;68.90;99671.91;10506678;28;20035;-78
2022/04/06 16:13:55;;;;;;;4.18;1.75;;;;;;;9.76;68.92;99681.34;10492799;28;20619;-78
2022/04/06 16:19:01;;;;;;;4.90;1.48;;;;;;;9.66;69.15;99675.81;10502156;28;20762;-78
2022/04/06 16:24:05;;;;;;;4.20;1.70;;;;;;;9.70;69.03;99659.41;10495778;28;20033;-77
2022/04/06 16:29:14;;;;;;;;;;;;;;;9.78;68.91;99661.38;10464709;28;20047;-78
2022/04/06 16:34:16;;;;;;;6.55;1.75;;;;;;;9.76;69.29;99657.84;10498325;28;20372;-80
2022/04/06 16:39:17;;;;;;;5.15;2.28;;;;;;;9.77;69.14;99643.94;10491528;28;20044;-78
2022/04/06 16:44:18;;;;;;;3.65;1.80;;;;;;;9.80;69.35;99644.94;10496716;28;20046;-78
2022/04/06 16:49:18;;;;;;;5.30;2.60;;;;;;;9.50;71.31;99640.50;10481384;28;20040;-78
2022/04/06 16:54:23;;;;;;;7.70;5.20;;;;;;;8.98;74.81;99652.69;10486847;28;20648;-77
2022/04/06 16:59:25;;;;;;;3.83;2.00;;;;;;;8.71;77.74;99639.56;10453751;28;20090;-78
2022/04/06 17:04:34;;;;;;;10.00;3.60;;;;;;;8.56;77.83;99637.28;10499502;28;20484;-80
2022/04/06 17:09:44;;;;;;;6.97;3.33;;;;;;;8.39;79.75;99632.31;10465683;28;20025;-79
2022/04/06 17:14:45;;;;;;;5.43;2.25;;;;;;;8.20;80.65;99647.28;10496754;28;20044;-80
2022/04/06 17:19:51;;;;;;;6.90;3.13;;;;;;;8.11;82.54;99646.06;10474197;28;20466;-78
2022/04/06 17:24:53;;;;;;;4.25;2.72;;;;;;;7.95;83.70;99648.09;10434413;28;20055;-78
2022/04/06 17:29:55;;;;;;;5.85;3.03;;;;;;;7.84;84.80;99638.97;10493184;28;20036;-78
2022/04/06 17:35:00;;;;;;;5.60;3.90;;;;;;;7.70;86.54;99615.88;10494975;28;20028;-77
2022/04/06 17:40:05;;;;;;;8.40;4.40;;;;;;;7.54;87.31;99590.94;10492919;28;20059;-77
2022/04/06 17:45:10;;;;;;;9.95;3.75;;;;;;;7.48;88.28;99590.69;10478953;28;20044;-78
2022/04/06 17:50:24;;;;;;;5.75;3.92;;;;;;;7.52;89.18;99584.78;10406051;28;20399;-78
2022/04/06 17:55:34;;;;;;;5.38;3.40;;;;;;;7.51;89.44;99575.19;10413254;28;20038;-78
2022/04/06 18:00:44;;;;;;;7.60;3.22;;;;;;;7.49;89.11;99569.94;10410092;28;20040;-78
2022/04/06 18:05:50;;;;;;;7.45;5.15;;;;;;;7.42;89.87;99554.00;10412086;28;20109;-79
2022/04/06 18:16:33;;;;;;;10.75;6.03;;;;;;;7.45;89.81;99562.81;10410139;28;20029;-77
2022/04/06 18:21:36;;;;;;;18.33;6.05;;;;;;;7.44;89.66;99552.34;10409411;28;20056;-77
2022/04/06 18:26:51;;;;;;;9.40;4.28;;;;;;;7.42;89.87;99557.50;10410808;28;20025;-78
2022/04/06 18:31:54;;;;;;;10.27;5.28;;;;;;;7.41;90.09;99557.44;10394537;28;20037;-78
2022/04/06 18:36:55;;;;;;;9.50;6.47;;;;;;;7.41;90.00;99555.72;10408889;28;20029;-77
2022/04/06 18:42:01;;;;;;;10.18;5.70;;;;;;;7.38;90.87;99554.69;10410419;28;20037;-78
2022/04/06 18:47:09;;;;;;;12.90;7.25;;;;;;;7.31;91.40;99557.06;10413460;28;20045;-76
2022/04/06 18:52:24;;;;;;;13.20;8.05;;;;;;;7.26;92.36;99545.59;10493325;28;20090;-77
2022/04/06 18:57:27;;;;;;;13.93;7.57;;;;;;;7.23;93.09;99560.19;10474457;28;20131;-78
2022/04/06 19:02:27;;;;;;;;;;;;;;;7.27;92.48;99531.75;10475678;28;20029;-77
2022/04/06 19:07:29;;;;;;;15.07;8.63;;;;;;;7.25;92.75;99529.91;10492234;28;19969;-78
2022/04/06 19:12:33;;;;;;;10.18;7.63;;;;;;;7.35;92.03;99503.44;10518901;28;20068;-78
2022/04/06 19:17:41;;;;;;;13.25;8.63;;;;;;;7.20;92.09;99511.50;10531119;28;20056;-78
2022/04/06 19:22:46;;;;;;;13.10;9.25;;;;;;;7.00;92.73;99510.72;10476727;28;20033;-78
2022/04/06 19:27:56;;;;;;;14.88;10.43;;;;;;;6.99;93.31;99504.63;10492197;28;20023;-78
2022/04/06 19:33:02;;;;;;;16.35;9.13;;;;;;;7.08;93.93;99500.63;10481887;28;20035;-78
2022/04/06 19:38:06;;;;;;;17.02;10.82;;;;;;;7.15;93.74;99506.13;10499282;28;20044;-78
2022/04/06 19:43:12;;;;;;;15.02;8.63;;;;;;;7.39;92.53;99496.59;10448533;28;20135;-78
2022/04/06 19:48:13;;;;;;;13.90;7.78;;;;;;;7.46;91.54;99502.13;10499276;28;20036;-78
2022/04/06 19:53:17;;;;;;;12.18;7.93;;;;;;;7.50;90.55;99495.31;10501132;28;20544;-78
2022/04/06 19:58:18;;;;;;;11.33;8.30;;;;;;;7.40;90.39;99496.69;10499118;28;20052;-78
2022/04/06 20:03:25;;;;;;;16.88;9.25;;;;;;;7.37;90.40;99500.88;10498686;28;20768;-79
2022/04/06 20:08:29;;;;;;;11.80;7.80;;;;;;;7.42;89.72;99481.09;10475257;28;20027;-78
2022/04/06 20:13:32;;;;;;;15.60;7.25;;;;;;;7.55;88.38;99488.56;10481672;28;20021;-77
2022/04/06 20:18:34;;;;;;;11.95;7.70;;;;;;;7.58;88.61;99483.47;10480916;28;20058;-78
2022/04/06 20:23:43;;;;;;;8.57;5.82;;;;;;;7.57;88.01;99473.00;10498750;28;20024;-78
2022/04/06 20:28:47;;;;;;;8.02;5.97;;;;;;;7.52;87.39;99469.34;10480778;28;20032;-78
2022/04/06 20:33:48;;;;;;;8.85;6.18;;;;;;;7.41;87.53;99472.44;10498754;28;20052;-78
2022/04/06 20:38:53;;;;;;;16.15;7.38;;;;;;;7.23;88.54;99467.38;10497258;28;20059;-78
2022/04/06 20:43:58;;;;;;;12.40;6.65;;;;;;;7.15;87.64;99461.00;10496658;28;20036;-78
2022/04/06 20:49:04;;;;;;;10.40;6.07;;;;;;;7.23;87.88;99451.78;10480928;28;20128;-78
2022/04/06 20:54:08;;;;;;;8.48;5.90;;;;;;;7.11;87.36;99444.41;10498798;28;20029;-78
2022/04/06 20:59:15;;;;;;;7.15;4.75;;;;;;;7.20;87.29;99444.75;10479273;28;20086;-78
2022/04/06 21:04:17;;;;;;;9.43;4.55;;;;;;;7.20;86.64;99433.44;10463084;28;20515;-78
2022/04/06 21:09:19;;;;;;;6.77;5.07;;;;;;;7.22;87.04;99430.91;10477900;28;20080;-78
2022/04/06 21:14:28;;;;;;;6.97;4.18;;;;;;;7.28;85.32;99419.00;10497966;28;20064;-78
2022/04/06 21:19:34;;;;;;;7.97;5.25;;;;;;;7.42;85.73;99410.81;10495474;28;20090;-78
2022/04/06 21:24:34;;;;;;;9.52;4.68;;;;;;;7.67;84.87;99403.91;10495626;28;20480;-78
2022/04/06 21:29:35;;;;;;;6.20;4.70;;;;;;;7.84;84.06;99400.19;10497293;28;20063;-78
2022/04/06 21:34:35;;;;;;;8.00;3.88;;;;;;;8.03;83.26;99387.78;10478016;28;20060;-78
2022/04/06 21:39:39;;;;;;;5.85;3.90;;;;;;;8.21;82.25;99371.91;10476109;28;20119;-78
2022/04/06 21:44:40;;;;;;;7.05;4.25;;;;;;;8.21;82.60;99371.91;10479167;28;20036;-78
2022/04/06 21:49:40;;;;;;;5.88;4.75;;;;;;;8.21;82.43;99367.56;10494625;28;20140;-78
2022/04/06 21:54:41;;;;;;;5.93;4.07;;;;;;;8.23;82.09;99358.06;10477794;28;20115;-79
2022/04/06 21:59:42;;;;;;;4.65;3.58;;;;;;;8.22;82.86;99361.50;10495995;28;20115;-78
2022/04/06 22:04:44;;;;;;;7.45;3.17;;;;;;;8.13;83.12;99349.91;10494626;28;20075;-78
2022/04/06 22:09:45;;;;;;;9.40;4.35;;;;;;;8.27;81.90;99322.59;10475889;28;20126;-79
2022/04/06 22:14:45;;;;;;;5.80;3.67;;;;;;;8.35;82.35;99347.19;10495243;28;20468;-78
2022/04/06 22:19:46;;;;;;;4.57;3.22;;;;;;;8.17;84.01;99339.63;10476234;28;20059;-79
2022/04/06 22:24:46;;;;;;;6.18;5.03;;;;;;;8.08;84.48;99331.50;10495354;28;20540;-78
2022/04/06 22:29:47;;;;;;;7.15;4.47;;;;;;;8.10;84.60;99319.41;10493049;28;20059;-78
2022/04/06 22:34:47;;;;;;;7.75;4.57;;;;;;;8.08;84.09;99311.56;10494276;28;20031;-79
2022/04/06 22:39:48;;;;;;;7.05;4.85;;;;;;;8.10;84.27;99303.78;10493880;28;20051;-79
2022/04/06 22:44:48;;;;;;;7.25;4.93;;;;;;;8.11;84.44;99302.94;10493734;28;20119;-79
2022/04/06 22:49:49;;;;;;;5.88;3.83;;;;;;;8.16;84.33;99297.91;10475674;28;20413;-79
2022/04/06 22:54:49;;;;;;;9.23;4.53;;;;;;;8.16;84.67;99279.66;10494849;28;20082;-79
2022/04/06 22:59:50;;;;;;;6.25;4.85;;;;;;;8.04;84.63;99254.97;10475164;28;20047;-79
2022/04/06 23:04:50;;;;;;;8.38;4.65;;;;;;;8.10;83.90;99266.44;10495703;28;20451;-79
2022/04/06 23:09:51;;;;;;;5.47;3.20;;;;;;;8.10;83.54;99250.78;10483578;28;20491;-79
2022/04/06 23:14:53;;;;;;;6.03;3.25;;;;;;;8.03;82.98;99257.50;10466843;28;20124;-79
2022/04/06 23:19:53;;;;;;;5.07;3.20;;;;;;;7.93;83.51;99245.94;10502544;28;20021;-79
2022/04/06 23:24:54;;;;;;;5.93;2.88;;;;;;;7.83;83.29;99241.25;10500869;28;20467;-79
2022/04/06 23:29:54;;;;;;;4.47;2.75;;;;;;;7.78;82.95;99226.38;10501226;28;20108;-80
2022/04/06 23:34:55;;;;;;;7.05;2.80;;;;;;;7.78;83.66;99228.97;10500157;28;20429;-79
2022/04/06 23:39:55;;;;;;;5.45;2.50;;;;;;;7.84;82.61;99236.09;10499966;28;20048;-79
2022/04/06 23:44:56;;;;;;;2.55;1.60;;;;;;;7.82;82.13;99227.34;10500182;28;20033;-78
2022/04/06 23:49:56;;;;;;;2.95;1.10;;;;;;;7.78;82.55;99212.44;10499310;28;20127;-78